createdAt,value
2022-09-11T00:00:17.576Z,20.63
2022-09-11T00:02:50.260Z,20.63
2022-09-11T00:05:16.537Z,20.62
2022-09-11T00:07:42.878Z,20.60
2022-09-11T00:10:09.124Z,20.58
2022-09-11T00:12:35.357Z,20.58
2022-09-11T00:15:01.788Z,20.56
2022-09-11T00:17:28.076Z,20.56
2022-09-11T00:19:54.344Z,20.55
2022-09-11T00:22:20.997Z,20.54
2022-09-11T00:24:47.292Z,20.53
2022-09-11T00:27:13.599Z,20.53
2022-09-11T00:29:40.015Z,20.52
2022-09-11T00:32:06.272Z,20.50
2022-09-11T00:34:32.524Z,20.50
2022-09-11T00:36:58.765Z,20.50
2022-09-11T00:39:25.071Z,20.49
2022-09-11T00:41:51.361Z,20.47
2022-09-11T00:44:17.723Z,20.47
2022-09-11T00:46:44.037Z,20.46
2022-09-11T00:49:10.461Z,20.45
2022-09-11T00:51:36.730Z,20.44
2022-09-11T00:54:03.014Z,20.42
2022-09-11T00:56:29.302Z,20.40
2022-09-11T00:58:55.551Z,20.41
2022-09-11T01:01:22.040Z,20.39
2022-09-11T01:03:48.304Z,20.38
2022-09-11T01:06:14.631Z,20.37
2022-09-11T01:08:40.971Z,20.36
2022-09-11T01:11:07.219Z,20.35
2022-09-11T01:13:33.588Z,20.35
2022-09-11T01:15:59.899Z,20.33
2022-09-11T01:18:26.280Z,20.32
2022-09-11T01:20:52.933Z,20.32
2022-09-11T01:23:19.257Z,20.32
2022-09-11T01:25:45.606Z,20.31
2022-09-11T01:28:11.911Z,20.30
2022-09-11T01:30:41.232Z,20.28
2022-09-11T01:33:07.510Z,20.28
2022-09-11T01:35:33.860Z,20.28
2022-09-11T01:38:00.133Z,20.27
2022-09-11T01:40:26.441Z,20.26
2022-09-11T01:42:52.706Z,20.25
2022-09-11T01:48:03.964Z,20.24
2022-09-11T01:50:30.254Z,20.23
2022-09-11T01:52:56.886Z,20.23
2022-09-11T02:03:48.119Z,20.21
2022-09-11T02:06:14.500Z,20.23
2022-09-11T02:11:31.259Z,20.23
2022-09-11T02:13:57.994Z,20.24
2022-09-11T02:16:24.515Z,20.26
2022-09-11T02:18:50.848Z,20.31
2022-09-11T02:21:17.170Z,20.35
2022-09-11T02:23:43.595Z,20.38
2022-09-11T02:26:10.023Z,20.29
2022-09-11T02:28:36.362Z,20.42
2022-09-11T02:31:02.816Z,20.44
2022-09-11T02:33:29.183Z,20.47
2022-09-11T02:35:55.492Z,20.50
2022-09-11T02:38:21.751Z,20.51
2022-09-11T02:40:48.046Z,20.52
2022-09-11T02:43:14.991Z,20.54
2022-09-11T02:45:41.372Z,20.55
2022-09-11T02:48:08.093Z,20.57
2022-09-11T02:50:34.490Z,20.58
2022-09-11T02:53:00.956Z,20.58
2022-09-11T02:55:27.448Z,20.60
2022-09-11T02:57:53.724Z,20.60
2022-09-11T03:00:20.021Z,20.61
2022-09-11T03:02:46.319Z,20.62
2022-09-11T03:05:12.750Z,20.62
2022-09-11T03:07:39.090Z,20.62
2022-09-11T03:10:05.838Z,20.64
2022-09-11T03:12:32.507Z,20.64
2022-09-11T03:14:58.965Z,20.65
2022-09-11T03:17:25.258Z,20.66
2022-09-11T03:19:51.536Z,20.66
2022-09-11T03:22:17.843Z,20.65
2022-09-11T03:24:47.345Z,20.66
2022-09-11T03:27:13.843Z,20.66
2022-09-11T03:29:40.151Z,20.68
2022-09-11T03:32:06.596Z,20.68
2022-09-11T03:34:33.055Z,20.68
2022-09-11T03:36:59.490Z,20.68
2022-09-11T03:39:25.782Z,20.68
2022-09-11T03:41:52.440Z,20.69
2022-09-11T03:44:18.737Z,20.68
2022-09-11T03:46:45.003Z,20.69
2022-09-11T03:49:11.315Z,20.68
2022-09-11T03:51:37.762Z,20.69
2022-09-11T03:54:04.116Z,20.71
2022-09-11T03:56:30.751Z,20.70
2022-09-11T03:58:57.109Z,20.70
2022-09-11T04:01:24.454Z,20.70
2022-09-11T04:03:50.871Z,20.70
2022-09-11T04:06:17.463Z,20.69
2022-09-11T04:08:43.748Z,20.70
2022-09-11T04:11:10.215Z,20.70
2022-09-11T04:13:36.552Z,20.70
2022-09-11T04:16:05.092Z,20.71
2022-09-11T04:18:31.412Z,20.70
2022-09-11T04:20:57.709Z,20.71
2022-09-11T04:23:23.994Z,20.70
2022-09-11T04:25:50.286Z,20.69
2022-09-11T04:28:16.555Z,20.70
2022-09-11T04:30:42.837Z,20.70
2022-09-11T04:33:09.196Z,20.71
2022-09-11T04:35:35.859Z,20.70
2022-09-11T04:38:02.350Z,20.71
2022-09-11T04:40:28.827Z,20.71
2022-09-11T04:42:55.524Z,20.71
2022-09-11T04:45:22.104Z,20.71
2022-09-11T04:47:48.417Z,20.71
2022-09-11T04:50:14.685Z,20.72
2022-09-11T04:52:41.013Z,20.71
2022-09-11T04:55:07.294Z,20.72
2022-09-11T04:57:33.833Z,20.72
2022-09-11T05:00:00.343Z,20.73
2022-09-11T05:02:26.926Z,20.74
2022-09-11T05:04:53.503Z,20.74
2022-09-11T05:07:22.032Z,20.74
2022-09-11T05:09:48.287Z,20.74
2022-09-11T05:12:14.661Z,20.75
2022-09-11T05:14:41.070Z,20.76
2022-09-11T05:17:07.361Z,20.40
2022-09-11T05:19:33.875Z,20.75
2022-09-11T05:22:00.417Z,20.75
2022-09-11T05:24:26.914Z,20.75
2022-09-11T05:26:53.154Z,20.74
2022-09-11T05:29:19.813Z,20.74
2022-09-11T05:31:46.127Z,20.75
2022-09-11T05:34:14.643Z,20.74
2022-09-11T05:36:40.937Z,20.74
2022-09-11T05:39:07.245Z,20.74
2022-09-11T05:41:34.030Z,20.76
2022-09-11T05:44:00.312Z,20.75
2022-09-11T05:46:26.668Z,20.76
2022-09-11T05:48:52.908Z,20.77
2022-09-11T05:51:19.242Z,20.77
2022-09-11T05:53:45.516Z,20.77
2022-09-11T05:56:11.786Z,20.78
2022-09-11T05:58:38.186Z,20.80
2022-09-11T06:01:04.775Z,20.81
2022-09-11T06:03:31.169Z,20.82
2022-09-11T06:05:57.554Z,20.83
2022-09-11T06:08:23.863Z,20.71
2022-09-11T06:10:50.260Z,20.84
2022-09-11T06:13:16.637Z,20.84
2022-09-11T06:15:46.966Z,20.85
2022-09-11T06:18:13.551Z,20.84
2022-09-11T06:20:39.927Z,20.85
2022-09-11T06:23:09.234Z,20.86
2022-09-11T06:25:35.802Z,20.86
2022-09-11T06:28:02.122Z,20.87
2022-09-11T06:30:28.543Z,20.87
2022-09-11T06:32:55.210Z,20.88
2022-09-11T06:35:21.520Z,20.88
2022-09-11T06:37:47.963Z,20.89
2022-09-11T06:40:14.368Z,20.89
2022-09-11T06:42:40.828Z,20.90
2022-09-11T06:45:07.172Z,20.88
2022-09-11T06:47:33.546Z,20.89
2022-09-11T06:49:59.817Z,20.91
2022-09-11T06:52:26.080Z,20.92
2022-09-11T06:54:52.420Z,20.92
2022-09-11T06:57:18.772Z,20.92
2022-09-11T06:59:45.454Z,20.92
2022-09-11T07:02:12.065Z,20.93
2022-09-11T07:04:38.444Z,20.93
2022-09-11T07:07:04.938Z,20.95
2022-09-11T07:09:31.360Z,20.96
2022-09-11T07:11:57.742Z,20.98
2022-09-11T07:14:24.070Z,20.99
2022-09-11T07:16:50.366Z,21.02
2022-09-11T07:19:16.849Z,21.04
2022-09-11T07:21:43.380Z,21.04
2022-09-11T07:24:09.763Z,21.05
2022-09-11T07:26:36.071Z,21.06
2022-09-11T07:29:02.465Z,21.07
2022-09-11T07:31:28.755Z,21.08
2022-09-11T07:33:55.138Z,21.09
2022-09-11T07:36:21.583Z,21.10
2022-09-11T07:38:48.565Z,21.13
2022-09-11T07:41:14.929Z,21.13
2022-09-11T07:43:41.206Z,21.14
2022-09-11T07:46:07.543Z,21.13
2022-09-11T07:48:33.876Z,21.15
2022-09-11T07:51:00.160Z,21.16
2022-09-11T07:53:26.672Z,21.16
2022-09-11T07:55:52.936Z,21.20
2022-09-11T07:58:19.562Z,21.21
2022-09-11T08:00:46.311Z,21.22
2022-09-11T08:03:12.781Z,21.31
2022-09-11T08:05:39.519Z,21.42
2022-09-11T08:08:05.811Z,21.49
2022-09-11T08:10:32.139Z,21.47
2022-09-11T08:13:00.060Z,21.43
2022-09-11T08:15:26.585Z,21.43
2022-09-11T08:17:53.532Z,21.43
2022-09-11T08:20:20.082Z,21.44
2022-09-11T08:22:46.942Z,21.44
2022-09-11T08:25:13.642Z,21.42
2022-09-11T08:27:40.202Z,21.43
2022-09-11T08:30:09.601Z,21.44
2022-09-11T08:32:36.012Z,21.45
2022-09-11T08:35:02.316Z,21.47
2022-09-11T08:37:28.683Z,21.49
2022-09-11T08:39:55.042Z,21.49
2022-09-11T08:42:21.405Z,21.52
2022-09-11T08:44:47.673Z,21.53
2022-09-11T08:47:14.541Z,21.53
2022-09-11T08:49:40.889Z,21.53
2022-09-11T08:52:07.305Z,21.52
2022-09-11T08:54:33.656Z,21.54
2022-09-11T08:57:00.088Z,21.56
2022-09-11T08:59:26.530Z,21.57
2022-09-11T09:01:52.843Z,21.55
2022-09-11T09:04:19.423Z,21.52
2022-09-11T09:06:45.755Z,21.51
2022-09-11T09:09:15.191Z,21.49
2022-09-11T09:11:41.817Z,21.47
2022-09-11T09:14:11.206Z,21.44
2022-09-11T09:16:37.662Z,21.41
2022-09-11T09:19:04.250Z,21.39
2022-09-11T09:21:30.678Z,21.38
2022-09-11T09:23:57.056Z,21.35
2022-09-11T09:26:23.327Z,21.33
2022-09-11T09:28:49.686Z,21.32
2022-09-11T09:31:16.556Z,21.31
2022-09-11T09:33:42.951Z,21.28
2022-09-11T09:36:09.606Z,21.27
2022-09-11T09:38:35.912Z,21.26
2022-09-11T09:41:02.747Z,21.23
2022-09-11T09:43:29.356Z,21.22
2022-09-11T09:45:55.642Z,21.21
2022-09-11T09:48:21.954Z,21.22
2022-09-11T09:50:48.334Z,21.22
2022-09-11T09:53:14.717Z,21.23
2022-09-11T09:55:44.409Z,21.23
2022-09-11T09:58:10.797Z,21.22
2022-09-11T10:00:37.794Z,21.22
2022-09-11T10:03:04.245Z,21.24
2022-09-11T10:05:30.579Z,21.27
2022-09-11T10:07:56.891Z,21.30
2022-09-11T10:10:23.185Z,21.33
2022-09-11T10:12:49.920Z,21.33
2022-09-11T10:15:16.317Z,21.33
2022-09-11T10:17:42.633Z,21.34
2022-09-11T10:20:09.130Z,21.36
2022-09-11T10:22:35.998Z,21.37
2022-09-11T10:25:02.396Z,21.42
2022-09-11T10:27:29.105Z,21.55
2022-09-11T10:29:55.472Z,21.60
2022-09-11T10:32:22.235Z,21.61
2022-09-11T10:34:48.605Z,21.65
2022-09-11T10:37:14.913Z,21.77
2022-09-11T10:39:41.919Z,21.91
2022-09-11T10:42:08.252Z,22.03
2022-09-11T10:44:34.590Z,22.12
2022-09-11T10:47:01.131Z,22.17
2022-09-11T10:49:27.478Z,22.21
2022-09-11T10:51:53.910Z,22.21
2022-09-11T10:54:20.242Z,22.16
2022-09-11T10:56:46.584Z,22.11
2022-09-11T10:59:12.892Z,22.05
2022-09-11T11:01:39.399Z,21.99
2022-09-11T11:04:09.218Z,21.96
2022-09-11T11:06:38.209Z,21.92
2022-09-11T11:09:05.780Z,21.89
2022-09-11T11:11:32.237Z,21.87
2022-09-11T11:13:58.599Z,21.86
2022-09-11T11:16:25.180Z,21.83
2022-09-11T11:18:52.049Z,21.81
2022-09-11T11:21:18.493Z,21.81
2022-09-11T11:23:44.986Z,21.82
2022-09-11T11:26:11.311Z,21.81
2022-09-11T11:28:37.961Z,21.79
2022-09-11T11:31:04.416Z,21.77
2022-09-11T11:33:30.835Z,21.76
2022-09-11T11:35:57.202Z,21.78
2022-09-11T11:38:23.502Z,21.76
2022-09-11T11:40:49.822Z,21.73
2022-09-11T11:43:16.084Z,21.71
2022-09-11T11:45:42.776Z,21.69
2022-09-11T11:48:09.223Z,21.70
2022-09-11T11:50:35.605Z,21.69
2022-09-11T11:53:01.901Z,21.68
2022-09-11T11:55:28.317Z,21.69
2022-09-11T11:57:55.224Z,21.70
2022-09-11T12:00:21.620Z,21.70
2022-09-11T12:02:47.920Z,21.72
2022-09-11T12:05:14.808Z,21.75
2022-09-11T12:07:41.571Z,21.78
2022-09-11T12:10:07.836Z,21.81
2022-09-11T12:12:34.173Z,21.83
2022-09-11T12:15:00.476Z,21.84
2022-09-11T12:17:27.038Z,21.81
2022-09-11T12:19:56.467Z,21.82
2022-09-11T12:22:22.775Z,21.82
2022-09-11T12:24:49.381Z,21.80
2022-09-11T12:27:15.754Z,21.79
2022-09-11T12:29:42.181Z,21.82
2022-09-11T12:32:08.517Z,21.84
2022-09-11T12:34:34.783Z,21.85
2022-09-11T12:37:01.194Z,21.87
2022-09-11T12:39:27.769Z,21.90
2022-09-11T12:41:54.602Z,21.93
2022-09-11T12:44:20.955Z,21.96
2022-09-11T12:46:47.399Z,21.99
2022-09-11T12:49:28.543Z,22.00
2022-09-11T12:51:55.420Z,22.01
2022-09-11T12:54:21.778Z,22.07
2022-09-11T12:56:48.251Z,22.12
2022-09-11T12:59:14.585Z,22.15
2022-09-11T13:01:40.951Z,22.13
2022-09-11T13:04:07.615Z,22.13
2022-09-11T13:06:34.056Z,22.12
2022-09-11T13:09:00.342Z,22.15
2022-09-11T13:11:27.072Z,22.19
2022-09-11T13:13:53.368Z,22.22
2022-09-11T13:16:19.696Z,22.25
2022-09-11T13:18:46.609Z,22.27
2022-09-11T13:21:12.887Z,22.31
2022-09-11T13:23:39.224Z,22.32
2022-09-11T13:26:05.496Z,22.39
2022-09-11T13:28:32.077Z,22.44
2022-09-11T13:30:59.399Z,22.48
2022-09-11T13:33:25.770Z,22.50
2022-09-11T13:35:52.080Z,22.51
2022-09-11T13:38:18.437Z,22.52
2022-09-11T13:40:46.202Z,22.53
2022-09-11T13:43:12.510Z,22.53
2022-09-11T13:45:38.803Z,22.55
2022-09-11T13:48:05.214Z,22.55
2022-09-11T13:50:31.599Z,22.57
2022-09-11T13:52:57.965Z,22.56
2022-09-11T13:55:24.602Z,22.55
2022-09-11T13:57:51.034Z,22.58
2022-09-11T14:00:17.302Z,22.55
2022-09-11T14:02:44.111Z,22.53
2022-09-11T14:05:11.039Z,22.53
2022-09-11T14:07:37.333Z,22.53
2022-09-11T14:10:03.593Z,22.51
2022-09-11T14:12:30.011Z,22.51
2022-09-11T14:14:56.572Z,22.50
2022-09-11T14:17:22.850Z,22.50
2022-09-11T14:19:49.255Z,22.50
2022-09-11T14:22:16.311Z,22.52
2022-09-11T14:24:42.573Z,22.53
2022-09-11T14:27:09.562Z,22.52
2022-09-11T14:29:35.839Z,22.51
2022-09-11T14:32:02.714Z,22.51
2022-09-11T14:34:29.005Z,22.52
2022-09-11T14:36:55.391Z,22.52
2022-09-11T14:39:21.887Z,22.51
2022-09-11T14:41:48.305Z,22.48
2022-09-11T14:44:14.604Z,22.46
2022-09-11T14:46:41.296Z,22.47
2022-09-11T14:49:08.163Z,22.46
2022-09-11T14:51:34.541Z,22.43
2022-09-11T14:54:02.209Z,22.42
2022-09-11T14:56:28.605Z,22.40
2022-09-11T14:58:55.759Z,22.39
2022-09-11T15:01:22.095Z,22.38
2022-09-11T15:03:48.659Z,22.37
2022-09-11T15:06:14.947Z,22.33
2022-09-11T15:08:41.221Z,22.31
2022-09-11T15:11:07.561Z,22.31
2022-09-11T15:13:33.866Z,22.30
2022-09-11T15:16:00.470Z,22.29
2022-09-11T15:18:26.765Z,22.29
2022-09-11T15:20:53.237Z,22.28
2022-09-11T15:23:19.578Z,22.29
2022-09-11T15:25:46.055Z,22.33
2022-09-11T15:28:12.347Z,22.37
2022-09-11T15:30:39.074Z,22.40
2022-09-11T15:33:05.353Z,22.43
2022-09-11T15:35:33.044Z,22.45
2022-09-11T15:38:00.264Z,22.48
2022-09-11T15:40:26.681Z,22.49
2022-09-11T15:42:53.642Z,22.52
2022-09-11T15:45:20.208Z,22.51
2022-09-11T15:47:46.511Z,22.53
2022-09-11T15:50:14.132Z,22.54
2022-09-11T15:52:40.558Z,22.54
2022-09-11T15:55:06.866Z,22.55
2022-09-11T15:57:33.169Z,22.54
2022-09-11T15:59:59.554Z,22.56
2022-09-11T16:02:25.933Z,22.56
2022-09-11T16:04:53.849Z,22.56
2022-09-11T16:07:20.319Z,22.56
2022-09-11T16:09:46.634Z,22.57
2022-09-11T16:12:12.976Z,22.57
2022-09-11T16:14:39.322Z,22.57
2022-09-11T16:17:05.922Z,22.57
2022-09-11T16:19:32.196Z,22.57
2022-09-11T16:21:58.688Z,22.56
2022-09-11T16:24:25.138Z,22.56
2022-09-11T16:26:51.450Z,22.56
2022-09-11T16:29:17.871Z,22.56
2022-09-11T16:31:44.886Z,22.55
2022-09-11T16:34:11.372Z,22.54
2022-09-11T16:36:37.743Z,22.54
2022-09-11T16:39:04.076Z,22.53
2022-09-11T16:41:30.985Z,22.53
2022-09-11T16:43:57.308Z,22.52
2022-09-11T16:46:23.676Z,22.51
2022-09-11T16:48:53.989Z,22.51
2022-09-11T16:51:21.319Z,22.49
2022-09-11T16:53:47.927Z,22.48
2022-09-11T16:56:14.364Z,22.47
2022-09-11T16:58:40.958Z,22.46
2022-09-11T17:01:07.814Z,22.46
2022-09-11T17:03:36.209Z,22.44
2022-09-11T17:06:05.865Z,22.41
2022-09-11T17:08:32.365Z,22.41
2022-09-11T17:10:59.203Z,22.40
2022-09-11T17:13:26.086Z,22.38
2022-09-11T17:15:52.346Z,22.37
2022-09-11T17:18:18.652Z,22.36
2022-09-11T17:20:45.048Z,22.34
2022-09-11T17:23:11.421Z,22.33
2022-09-11T17:25:37.858Z,22.31
2022-09-11T17:28:04.546Z,22.29
2022-09-11T17:30:31.038Z,22.28
2022-09-11T17:33:00.150Z,22.27
2022-09-11T17:35:26.449Z,22.25
2022-09-11T17:37:52.917Z,22.22
2022-09-11T17:40:19.726Z,22.22
2022-09-11T17:42:46.328Z,22.20
2022-09-11T17:45:12.603Z,22.18
2022-09-11T17:47:39.300Z,22.15
2022-09-11T17:50:05.633Z,22.15
2022-09-11T17:52:32.027Z,22.13
2022-09-11T17:54:58.317Z,22.12
2022-09-11T17:57:24.711Z,22.10
2022-09-11T17:59:51.062Z,22.06
2022-09-11T18:02:17.410Z,22.05
2022-09-11T18:04:43.762Z,22.04
2022-09-11T18:07:10.113Z,22.03
2022-09-11T18:09:36.444Z,22.00
2022-09-11T18:12:02.788Z,21.99
2022-09-11T18:14:29.059Z,21.97
2022-09-11T18:16:55.358Z,21.95
2022-09-11T18:19:21.639Z,21.94
2022-09-11T18:21:50.425Z,21.92
2022-09-11T18:24:17.061Z,21.89
2022-09-11T18:26:43.314Z,21.89
2022-09-11T18:29:09.882Z,21.87
2022-09-11T18:31:36.235Z,21.86
2022-09-11T18:34:02.560Z,21.84
2022-09-11T18:36:28.951Z,21.82
2022-09-11T18:38:55.204Z,21.81
2022-09-11T18:41:21.449Z,21.78
2022-09-11T18:43:48.050Z,21.77
2022-09-11T18:46:14.368Z,21.75
2022-09-11T18:48:40.734Z,21.72
2022-09-11T18:51:07.075Z,21.71
2022-09-11T18:53:33.913Z,21.70
2022-09-11T18:56:00.515Z,21.68
2022-09-11T18:58:26.803Z,21.66
2022-09-11T19:00:53.134Z,21.65
2022-09-11T19:03:21.336Z,21.64
2022-09-11T19:05:47.780Z,21.63
2022-09-11T19:08:14.022Z,21.62
2022-09-11T19:10:40.257Z,21.60
2022-09-11T19:13:06.572Z,21.58
2022-09-11T19:15:32.937Z,21.57
2022-09-11T19:18:00.231Z,21.56
2022-09-11T19:20:26.647Z,21.55
2022-09-11T19:22:53.310Z,21.53
2022-09-11T19:25:19.587Z,21.52
2022-09-11T19:27:46.541Z,21.50
2022-09-11T19:30:13.148Z,21.49
2022-09-11T19:32:39.383Z,21.47
2022-09-11T19:35:05.920Z,21.46
2022-09-11T19:37:32.301Z,21.46
2022-09-11T19:40:00.325Z,21.44
2022-09-11T19:42:27.175Z,21.43
2022-09-11T19:44:56.316Z,21.42
2022-09-11T19:47:23.086Z,21.42
2022-09-11T19:49:49.616Z,21.39
2022-09-11T19:52:16.122Z,21.37
2022-09-11T19:54:42.688Z,21.37
2022-09-11T19:57:09.006Z,21.36
2022-09-11T19:59:35.341Z,21.34
2022-09-11T20:02:01.639Z,21.33
2022-09-11T20:04:27.966Z,21.33
2022-09-11T20:09:31.021Z,21.29
2022-09-11T20:12:00.288Z,21.29
2022-09-11T20:14:27.229Z,21.27
2022-09-11T20:16:53.894Z,21.27
2022-09-11T20:19:20.611Z,21.25
2022-09-11T20:21:47.263Z,21.24
2022-09-11T20:24:13.621Z,21.22
2022-09-11T20:26:39.925Z,21.21
2022-09-11T20:29:06.244Z,21.20
2022-09-11T20:31:32.576Z,21.18
2022-09-11T20:34:00.703Z,21.18
2022-09-11T20:36:27.135Z,21.17
2022-09-11T20:38:53.386Z,21.16
2022-09-11T20:41:19.636Z,21.15
2022-09-11T20:43:47.079Z,21.13
2022-09-11T20:46:13.757Z,21.11
2022-09-11T20:48:40.144Z,21.09
2022-09-11T20:51:06.681Z,21.09
2022-09-11T20:53:32.957Z,21.08
2022-09-11T20:56:00.468Z,21.08
2022-09-11T20:58:27.459Z,21.07
2022-09-11T21:00:54.156Z,21.05
2022-09-11T21:03:20.529Z,21.05
2022-09-11T21:05:47.178Z,21.04
2022-09-11T21:08:13.439Z,21.03
2022-09-11T21:10:39.734Z,21.02
2022-09-11T21:13:08.972Z,21.00
2022-09-11T21:15:35.411Z,20.99
2022-09-11T21:18:01.730Z,21.00
2022-09-11T21:20:28.118Z,20.98
2022-09-11T21:22:54.642Z,20.97
2022-09-11T21:25:20.950Z,20.95
2022-09-11T21:27:47.299Z,20.95
2022-09-11T21:30:13.712Z,20.93
2022-09-11T21:32:40.041Z,20.91
2022-09-11T21:35:06.296Z,20.91
2022-09-11T21:37:32.596Z,20.90
2022-09-11T21:39:58.945Z,20.89
2022-09-11T21:42:25.231Z,20.89
2022-09-11T21:44:52.703Z,20.87
2022-09-11T21:47:19.086Z,20.87
2022-09-11T21:49:45.475Z,20.85
2022-09-11T21:52:11.838Z,20.84
2022-09-11T21:54:38.073Z,20.84
2022-09-11T21:57:04.476Z,20.82
2022-09-11T21:59:30.758Z,20.82
2022-09-11T22:01:57.083Z,20.82
2022-09-11T22:04:23.794Z,20.80
2022-09-11T22:06:50.348Z,20.78
2022-09-11T22:09:16.699Z,20.75
2022-09-11T22:11:43.255Z,20.70
2022-09-11T22:14:09.578Z,20.66
2022-09-11T22:16:36.052Z,20.62
2022-09-11T22:19:02.458Z,20.58
2022-09-11T22:21:28.778Z,20.55
2022-09-11T22:23:55.356Z,20.52
2022-09-11T22:26:21.635Z,20.47
2022-09-11T22:28:48.142Z,20.44
2022-09-11T22:31:14.536Z,20.40
2022-09-11T22:33:40.877Z,20.37
2022-09-11T22:36:07.339Z,20.35
2022-09-11T22:38:33.677Z,20.33
2022-09-11T22:41:00.112Z,20.30
2022-09-11T22:43:26.422Z,20.27
2022-09-11T22:45:52.792Z,20.24
2022-09-11T22:48:19.176Z,20.20
2022-09-11T22:50:45.429Z,20.17
2022-09-11T22:53:11.691Z,20.15
2022-09-11T22:55:38.025Z,20.14
2022-09-11T22:58:04.439Z,20.11
2022-09-11T23:00:30.899Z,20.08
2022-09-11T23:02:57.299Z,20.06
2022-09-11T23:05:23.663Z,20.04
2022-09-11T23:07:50.093Z,20.01
2022-09-11T23:10:16.649Z,19.99
2022-09-11T23:12:42.971Z,19.96
2022-09-11T23:15:09.199Z,19.93
2022-09-11T23:17:35.508Z,19.90
2022-09-11T23:20:01.863Z,19.88
2022-09-11T23:22:28.164Z,19.86
2022-09-11T23:24:54.493Z,19.82
2022-09-11T23:27:20.801Z,19.80
2022-09-11T23:29:47.631Z,19.79
2022-09-11T23:32:14.094Z,19.76
2022-09-11T23:34:40.433Z,19.74
2022-09-11T23:37:06.681Z,19.71
2022-09-11T23:39:33.167Z,19.71
2022-09-11T23:41:59.914Z,19.68
2022-09-11T23:44:26.288Z,19.66
2022-09-11T23:46:52.719Z,19.63
2022-09-11T23:49:24.522Z,19.61
2022-09-11T23:51:50.862Z,19.59
2022-09-11T23:54:17.194Z,19.57
2022-09-11T23:56:43.487Z,19.56
2022-09-11T23:59:09.854Z,19.54
